Close Search

Base
°C
Summit
°C

WEATHER AT A GLANCE

Image Slideshow

RMR Village

Revelstoke Mountain Resort -  RMR Village Webcam

Top of The Stoke

Revelstoke Mountain Resort -  Top of The Stoke Webcam

Top of Stellar

Revelstoke Mountain Resort -  Top of Stellar Webcam

Mackenzie Outpost

Revelstoke Mountain Resort -  Mackenzie Outpost Webcam

Ripper

Revelstoke Mountain Resort -  Ripper Webcam
Base
°C
Summit
°C
Wind (Summit)
km/h

Today's Forecast

Subpeak Weather

Time Avg. Air Temp Dew Point Avg. Rel Humidity Avg. 2 Min Wind Speed Max Gust Velocity MGV Time MGV Direction Avg. Spot Wind Velocity
2026-05-02 22:10:005° C-6° C43%16 km/h19 km/h22:10:00NW16 km/h
21:10:005° C-6° C42%15 km/h17 km/h21:09:00NW15 km/h
20:10:006° C-6° C42%11 km/h13 km/h20:07:00NW11 km/h
19:10:006° C-6° C43%7 km/h11 km/h19:06:00N7 km/h
18:10:006° C-5° C44%11 km/h18 km/h18:10:00NE9 km/h
17:10:006° C-5° C45%7 km/h12 km/h17:07:00W7 km/h
16:10:006° C-5° C47%12 km/h22 km/h16:09:00NE8 km/h
15:10:005° C-5° C47%7 km/h20 km/h15:06:00NW10 km/h
14:10:005° C-4° C50%7 km/h22 km/h14:07:00NW9 km/h
13:10:004° C-5° C52%9 km/h13 km/h13:10:00NW7 km/h
12:10:004° C-4° C54%6 km/h18 km/h12:06:00NW7 km/h
11:10:004° C-4° C58%13 km/h16 km/h11:10:00NW9 km/h
10:10:003° C-3° C60%8 km/h13 km/h10:06:00NW10 km/h
09:10:004° C-3° C61%3 km/h9 km/h09:06:00NE4 km/h
08:10:003° C-3° C63%2 km/h7 km/h08:10:00NW3 km/h
07:10:003° C-3° C63%15 km/h16 km/h07:07:00NW16 km/h
06:10:003° C-3° C64%12 km/h15 km/h06:10:00W12 km/h
05:10:004° C-4° C59%12 km/h14 km/h05:06:00NW13 km/h
04:10:004° C-3° C62%10 km/h11 km/h04:10:00NW9 km/h
03:10:004° C-3° C64%8 km/h9 km/h03:06:00SW8 km/h
02:10:004° C-3° C64%9 km/h9 km/h02:06:00SW9 km/h
01:10:004° C-2° C65%9 km/h9 km/h01:10:00SW9 km/h
00:10:004° C-3° C62%7 km/h8 km/h00:07:00SW7 km/h
23:10:004° C-4° C58%4 km/h5 km/h23:08:00W5 km/h

Time Avg. Air Temp Dew Point Avg. Rel Humidity Avg. 2 Min Wind Speed Max Gust Velocity MGV Time MGV Direction Avg. Spot Wind Velocity
2026-05-02 22:10:005° C-6° C43%16 km/h19 km/h22:10:00NW16 km/h
22:05:005° C-6° C43%16 km/h20 km/h22:01:00NW17 km/h
22:00:005° C-6° C43%17 km/h21 km/h21:57:00NW18 km/h
21:55:005° C-6° C43%19 km/h21 km/h21:54:00NW19 km/h
21:50:005° C-6° C43%15 km/h18 km/h21:46:00NW15 km/h
21:45:005° C-6° C42%14 km/h21 km/h21:41:00NW15 km/h
21:40:005° C-6° C42%22 km/h25 km/h21:38:00NW21 km/h
21:35:005° C-6° C42%19 km/h22 km/h21:35:00NW18 km/h
21:30:005° C-7° C42%18 km/h20 km/h21:29:00NW17 km/h
21:25:005° C-6° C43%18 km/h20 km/h21:24:00NW17 km/h
21:20:005° C-6° C43%14 km/h21 km/h21:18:00NW16 km/h
21:15:005° C-6° C43%18 km/h19 km/h21:15:00NW16 km/h
21:10:005° C-6° C42%15 km/h17 km/h21:09:00NW15 km/h

We value your privacy
We use cookies to enhance your browsing experience, serve personalized ads or content, and analyze our traffic. By clicking "Allow Cookies", you consent to our use of cookies. For additional details view our Privacy Policy.
Cookie preferences

You can control how your data is used on our website. Learn more below about the cookies we use by reviewing our Privacy Policy.

Your cookie preferences have been saved.